createdAt,value
2023-05-23T00:00:15.169Z,22.34
2023-05-23T00:01:16.161Z,22.34
2023-05-23T00:02:16.318Z,22.35
2023-05-23T00:03:16.404Z,22.34
2023-05-23T00:04:16.206Z,22.34
2023-05-23T00:05:15.142Z,22.33
2023-05-23T00:06:16.143Z,22.34
2023-05-23T00:07:15.171Z,22.33
2023-05-23T00:08:15.253Z,22.33
2023-05-23T00:09:16.299Z,22.32
2023-05-23T00:10:15.370Z,22.33
2023-05-23T00:11:16.420Z,22.32
2023-05-23T00:12:16.496Z,22.33
2023-05-23T00:13:15.529Z,22.33
2023-05-23T00:14:15.583Z,22.32
2023-05-23T00:15:16.619Z,22.32
2023-05-23T00:16:16.698Z,22.32
2023-05-23T00:17:16.753Z,22.32
2023-05-23T00:18:16.951Z,22.32
2023-05-23T00:19:15.916Z,22.31
2023-05-23T00:20:15.951Z,22.31
2023-05-23T00:21:16.027Z,22.31
2023-05-23T00:22:16.057Z,22.31
2023-05-23T00:23:16.132Z,22.31
2023-05-23T00:24:17.149Z,22.31
2023-05-23T00:25:17.221Z,22.31
2023-05-23T00:26:16.274Z,22.31
2023-05-23T00:27:17.334Z,22.30
2023-05-23T00:28:16.374Z,22.30
2023-05-23T00:29:17.433Z,22.30
2023-05-23T00:30:16.443Z,22.30
2023-05-23T00:31:16.548Z,22.29
2023-05-23T00:32:17.538Z,22.29
2023-05-23T00:33:17.605Z,22.30
2023-05-23T00:34:18.054Z,22.29
2023-05-23T00:35:16.650Z,22.29
2023-05-23T00:36:17.707Z,22.29
2023-05-23T00:37:16.776Z,22.28
2023-05-23T00:38:17.844Z,22.29
2023-05-23T00:39:17.924Z,22.28
2023-05-23T00:40:17.968Z,22.28
2023-05-23T00:41:18.020Z,22.28
2023-05-23T00:42:18.080Z,22.28
2023-05-23T00:43:17.134Z,22.27
2023-05-23T00:44:18.223Z,22.28
2023-05-23T00:45:18.250Z,22.27
2023-05-23T00:46:18.338Z,22.27
2023-05-23T00:47:18.383Z,22.27
2023-05-23T00:48:18.417Z,22.27
2023-05-23T00:49:18.483Z,22.27
2023-05-23T00:50:17.670Z,22.26
2023-05-23T00:51:18.592Z,22.26
2023-05-23T00:52:18.650Z,22.27
2023-05-23T00:53:18.721Z,22.27
2023-05-23T00:54:17.752Z,22.26
2023-05-23T00:55:17.786Z,22.26
2023-05-23T00:56:18.824Z,22.26
2023-05-23T00:57:17.884Z,22.26
2023-05-23T00:58:18.922Z,22.26
2023-05-23T00:59:18.975Z,22.25
2023-05-23T01:00:19.036Z,22.25
2023-05-23T01:01:18.118Z,22.26
2023-05-23T01:02:19.174Z,22.25
2023-05-23T01:03:19.237Z,22.25
2023-05-23T01:04:19.256Z,22.25
2023-05-23T01:05:19.443Z,22.24
2023-05-23T01:06:18.340Z,22.24
2023-05-23T01:07:19.381Z,22.24
2023-05-23T01:08:18.454Z,22.24
2023-05-23T01:09:18.491Z,22.24
2023-05-23T01:10:19.545Z,22.24
2023-05-23T01:11:19.581Z,22.23
2023-05-23T01:12:18.653Z,22.24
2023-05-23T01:13:18.681Z,22.24
2023-05-23T01:14:19.706Z,22.23
2023-05-23T01:15:18.759Z,22.23
2023-05-23T01:16:19.903Z,22.23
2023-05-23T01:17:19.902Z,22.22
2023-05-23T01:18:19.930Z,22.23
2023-05-23T01:19:19.041Z,22.22
2023-05-23T01:20:20.048Z,22.22
2023-05-23T01:21:20.205Z,22.21
2023-05-23T01:22:19.138Z,22.23
2023-05-23T01:23:19.187Z,22.22
2023-05-23T01:24:19.232Z,22.21
2023-05-23T01:25:20.269Z,22.21
2023-05-23T01:26:20.351Z,22.22
2023-05-23T01:27:19.395Z,22.21
2023-05-23T01:28:20.430Z,22.21
2023-05-23T01:29:20.472Z,22.21
2023-05-23T01:30:20.509Z,22.21
2023-05-23T01:31:19.590Z,22.21
2023-05-23T01:32:20.553Z,22.21
2023-05-23T01:33:19.615Z,22.21
2023-05-23T01:34:20.709Z,22.21
2023-05-23T01:35:20.709Z,22.21
2023-05-23T01:36:19.773Z,22.21
2023-05-23T01:37:19.961Z,22.20
2023-05-23T01:38:20.859Z,22.20
2023-05-23T01:39:20.918Z,22.20
2023-05-23T01:40:20.974Z,22.19
2023-05-23T01:41:20.022Z,22.19
2023-05-23T01:42:20.069Z,22.19
2023-05-23T01:43:21.132Z,22.19
2023-05-23T01:44:21.250Z,22.19
2023-05-23T01:45:21.079Z,22.19
2023-05-23T01:46:21.188Z,22.18
2023-05-23T01:47:21.159Z,22.19
2023-05-23T01:48:20.224Z,22.18
2023-05-23T01:49:20.226Z,22.19
2023-05-23T01:50:21.253Z,22.19
2023-05-23T01:51:20.289Z,22.18
2023-05-23T01:52:20.352Z,22.18
2023-05-23T01:53:20.490Z,22.18
2023-05-23T01:54:20.403Z,22.18
2023-05-23T01:55:21.423Z,22.18
2023-05-23T01:56:20.465Z,22.17
2023-05-23T01:57:21.530Z,22.17
2023-05-23T01:58:20.515Z,22.17
2023-05-23T01:59:20.534Z,22.17
2023-05-23T02:00:20.565Z,22.17
2023-05-23T02:01:21.610Z,22.16
2023-05-23T02:02:20.660Z,22.17
2023-05-23T02:03:20.714Z,22.16
2023-05-23T02:04:20.538Z,22.17
2023-05-23T02:05:20.542Z,22.16
2023-05-23T02:06:21.557Z,22.16
2023-05-23T02:07:21.565Z,22.16
2023-05-23T02:08:21.548Z,22.16
2023-05-23T02:09:21.668Z,22.16
2023-05-23T02:10:21.589Z,22.16
2023-05-23T02:11:21.600Z,22.16
2023-05-23T02:12:21.598Z,22.16
2023-05-23T02:13:20.623Z,22.15
2023-05-23T02:14:21.624Z,22.16
2023-05-23T02:15:20.657Z,22.15
2023-05-23T02:16:20.724Z,22.15
2023-05-23T02:17:20.725Z,22.15
2023-05-23T02:18:21.742Z,22.15
2023-05-23T02:19:21.860Z,22.15
2023-05-23T02:20:20.835Z,22.15
2023-05-23T02:21:20.869Z,22.14
2023-05-23T02:22:20.957Z,22.14
2023-05-23T02:23:20.925Z,22.14
2023-05-23T02:24:21.953Z,22.14
2023-05-23T02:25:22.102Z,22.14
2023-05-23T02:26:21.009Z,22.14
2023-05-23T02:27:21.044Z,22.13
2023-05-23T02:28:21.145Z,22.13
2023-05-23T02:29:21.054Z,22.13
2023-05-23T02:30:22.087Z,22.13
2023-05-23T02:31:22.177Z,22.13
2023-05-23T02:32:22.150Z,22.13
2023-05-23T02:33:22.169Z,22.14
2023-05-23T02:34:21.176Z,22.13
2023-05-23T02:35:21.192Z,22.13
2023-05-23T02:36:22.190Z,22.13
2023-05-23T02:37:22.227Z,22.13
2023-05-23T02:38:22.272Z,22.13
2023-05-23T02:39:21.256Z,22.13
2023-05-23T02:40:22.261Z,22.12
2023-05-23T02:41:21.375Z,22.13
2023-05-23T02:42:22.267Z,22.13
2023-05-23T02:43:21.267Z,22.12
2023-05-23T02:44:21.266Z,22.12
2023-05-23T02:45:22.272Z,22.11
2023-05-23T02:46:22.288Z,22.12
2023-05-23T02:47:22.325Z,22.11
2023-05-23T02:48:22.256Z,22.11
2023-05-23T02:49:22.266Z,22.11
2023-05-23T02:50:22.260Z,22.11
2023-05-23T02:51:22.268Z,22.11
2023-05-23T02:52:21.257Z,22.11
2023-05-23T02:53:22.247Z,22.11
2023-05-23T02:54:22.229Z,22.11
2023-05-23T02:55:22.239Z,22.11
2023-05-23T02:56:22.334Z,22.11
2023-05-23T02:57:22.358Z,22.10
2023-05-23T02:58:22.273Z,22.10
2023-05-23T02:59:22.236Z,22.11
2023-05-23T03:00:21.267Z,22.10
2023-05-23T03:01:21.247Z,22.10
2023-05-23T03:02:21.239Z,22.10
2023-05-23T03:03:22.271Z,22.09
2023-05-23T03:04:22.245Z,22.09
2023-05-23T03:05:22.216Z,22.10
2023-05-23T03:06:21.227Z,22.09
2023-05-23T03:07:28.168Z,22.09
2023-05-23T03:08:22.205Z,22.08
2023-05-23T03:09:21.196Z,22.08
2023-05-23T03:10:22.182Z,22.09
2023-05-23T03:11:22.189Z,22.08
2023-05-23T03:12:21.171Z,22.09
2023-05-23T03:13:21.327Z,22.09
2023-05-23T03:14:21.163Z,22.07
2023-05-23T03:15:22.155Z,22.07
2023-05-23T03:16:22.203Z,22.08
2023-05-23T03:17:22.190Z,22.07
2023-05-23T03:18:22.135Z,22.07
2023-05-23T03:19:22.165Z,22.06
2023-05-23T03:20:21.120Z,22.07
2023-05-23T03:21:22.106Z,22.06
2023-05-23T03:22:21.109Z,22.07
2023-05-23T03:23:21.105Z,22.07
2023-05-23T03:24:21.172Z,22.06
2023-05-23T03:25:22.122Z,22.07
2023-05-23T03:26:22.076Z,22.06
2023-05-23T03:27:21.070Z,22.06
2023-05-23T03:28:21.071Z,22.06
2023-05-23T03:29:22.185Z,22.06
2023-05-23T03:30:21.054Z,22.06
2023-05-23T03:31:22.072Z,22.07
2023-05-23T03:32:22.052Z,22.06
2023-05-23T03:33:22.027Z,22.05
2023-05-23T03:34:21.023Z,22.06
2023-05-23T03:35:21.020Z,22.05
2023-05-23T03:36:22.022Z,22.06
2023-05-23T03:37:22.035Z,22.04
2023-05-23T03:38:22.010Z,22.05
2023-05-23T03:39:21.993Z,22.06
2023-05-23T03:40:20.988Z,22.05
2023-05-23T03:41:21.981Z,22.06
2023-05-23T03:42:22.001Z,22.05
2023-05-23T03:43:20.993Z,22.04
2023-05-23T03:44:21.963Z,22.04
2023-05-23T03:45:22.093Z,22.05
2023-05-23T03:46:21.031Z,22.04
2023-05-23T03:47:20.948Z,22.04
2023-05-23T03:48:20.964Z,22.04
2023-05-23T03:49:21.928Z,22.04
2023-05-23T03:50:20.924Z,22.04
2023-05-23T03:51:21.930Z,22.04
2023-05-23T03:52:21.919Z,22.04
2023-05-23T03:53:21.905Z,22.04
2023-05-23T03:54:21.895Z,22.04
2023-05-23T03:55:21.891Z,22.03
2023-05-23T03:56:20.893Z,22.03
2023-05-23T03:57:20.877Z,22.03
2023-05-23T03:58:20.869Z,22.03
2023-05-23T03:59:20.878Z,22.02
2023-05-23T04:00:20.861Z,22.02
2023-05-23T04:01:20.982Z,22.02
2023-05-23T04:02:21.965Z,22.02
2023-05-23T04:03:21.985Z,22.02
2023-05-23T04:04:21.914Z,22.03
2023-05-23T04:05:20.830Z,22.03
2023-05-23T04:06:21.829Z,22.02
2023-05-23T04:07:21.095Z,22.02
2023-05-23T04:08:21.813Z,22.02
2023-05-23T04:09:21.800Z,22.02
2023-05-23T04:10:20.825Z,22.02
2023-05-23T04:11:20.799Z,22.02
2023-05-23T04:12:21.781Z,22.02
2023-05-23T04:13:21.776Z,22.02
2023-05-23T04:14:21.767Z,22.02
2023-05-23T04:15:21.840Z,22.02
2023-05-23T04:16:20.765Z,22.02
2023-05-23T04:17:21.975Z,22.02
2023-05-23T04:18:20.745Z,22.01
2023-05-23T04:19:20.735Z,22.01
2023-05-23T04:20:20.721Z,22.01
2023-05-23T04:21:21.734Z,22.01
2023-05-23T04:22:21.737Z,22.01
2023-05-23T04:23:20.745Z,22.01
2023-05-23T04:24:21.724Z,22.01
2023-05-23T04:25:20.698Z,22.01
2023-05-23T04:26:20.684Z,22.01
2023-05-23T04:27:20.704Z,22.01
2023-05-23T04:28:20.689Z,22.00
2023-05-23T04:29:21.692Z,22.01
2023-05-23T04:30:20.669Z,22.01
2023-05-23T04:31:20.722Z,22.00
2023-05-23T04:32:21.680Z,22.00
2023-05-23T04:33:20.784Z,22.00
2023-05-23T04:34:21.652Z,22.00
2023-05-23T04:35:21.644Z,22.00
2023-05-23T04:36:21.634Z,22.00
2023-05-23T04:37:21.631Z,22.00
2023-05-23T04:38:21.625Z,21.99
2023-05-23T04:39:20.603Z,21.99
2023-05-23T04:40:20.598Z,21.99
2023-05-23T04:41:21.623Z,21.99
2023-05-23T04:42:21.586Z,22.00
2023-05-23T04:43:21.594Z,22.00
2023-05-23T04:44:20.573Z,21.99
2023-05-23T04:45:21.569Z,21.99
2023-05-23T04:46:20.631Z,21.99
2023-05-23T04:47:20.551Z,21.99
2023-05-23T04:48:21.576Z,21.98
2023-05-23T04:49:20.681Z,21.99
2023-05-23T04:50:21.540Z,21.99
2023-05-23T04:51:21.539Z,21.99
2023-05-23T04:52:21.533Z,21.99
2023-05-23T04:53:21.511Z,21.99
2023-05-23T04:54:20.517Z,21.99
2023-05-23T04:55:21.527Z,21.98
2023-05-23T04:56:22.075Z,21.99
2023-05-23T04:57:21.500Z,21.99
2023-05-23T04:58:21.502Z,22.00
2023-05-23T04:59:21.491Z,21.99
2023-05-23T05:00:21.515Z,21.99
2023-05-23T05:01:22.244Z,21.99
2023-05-23T05:02:22.082Z,21.99
2023-05-23T05:03:20.461Z,21.98
2023-05-23T05:04:20.492Z,21.99
2023-05-23T05:05:21.577Z,21.99
2023-05-23T05:06:21.482Z,21.99
2023-05-23T05:07:20.438Z,21.99
2023-05-23T05:08:21.435Z,21.99
2023-05-23T05:09:21.416Z,21.99
2023-05-23T05:10:21.411Z,21.99
2023-05-23T05:11:21.398Z,21.99
2023-05-23T05:12:20.420Z,21.99
2023-05-23T05:13:20.398Z,21.99
2023-05-23T05:14:20.387Z,21.99
2023-05-23T05:15:20.384Z,21.98
2023-05-23T05:16:20.457Z,21.99
2023-05-23T05:17:21.421Z,21.99
2023-05-23T05:18:21.353Z,21.99
2023-05-23T05:19:20.360Z,22.00
2023-05-23T05:20:21.385Z,21.99
2023-05-23T05:21:21.480Z,21.99
2023-05-23T05:22:20.337Z,22.00
2023-05-23T05:23:20.301Z,22.00
2023-05-23T05:24:21.304Z,22.00
2023-05-23T05:25:20.304Z,22.01
2023-05-23T05:26:21.307Z,22.01
2023-05-23T05:27:21.295Z,22.01
2023-05-23T05:28:21.282Z,22.01
2023-05-23T05:29:21.314Z,22.01
2023-05-23T05:30:21.284Z,21.98
2023-05-23T05:31:21.281Z,22.00
2023-05-23T05:32:20.337Z,22.02
2023-05-23T05:33:20.266Z,22.03
2023-05-23T05:34:21.235Z,22.00
2023-05-23T05:35:21.256Z,22.02
2023-05-23T05:36:21.235Z,22.05
2023-05-23T05:37:21.399Z,22.07
2023-05-23T05:38:21.251Z,22.07
2023-05-23T05:39:21.224Z,22.09
2023-05-23T05:40:21.242Z,22.10
2023-05-23T05:41:21.265Z,22.12
2023-05-23T05:42:21.205Z,22.12
2023-05-23T05:43:21.190Z,22.12
2023-05-23T05:44:20.271Z,22.11
2023-05-23T05:45:21.324Z,22.15
2023-05-23T05:46:21.369Z,22.15
2023-05-23T05:47:21.174Z,22.16
2023-05-23T05:48:20.156Z,22.19
2023-05-23T05:49:21.149Z,22.23
2023-05-23T05:50:21.149Z,22.25
2023-05-23T05:51:21.155Z,22.30
2023-05-23T05:52:21.150Z,22.36
2023-05-23T05:53:21.245Z,22.41
2023-05-23T05:54:21.161Z,22.43
2023-05-23T05:55:21.130Z,22.45
2023-05-23T05:56:21.135Z,22.45
2023-05-23T05:57:21.137Z,22.46
2023-05-23T05:58:21.141Z,22.50
2023-05-23T05:59:21.225Z,22.52
2023-05-23T06:00:21.088Z,22.55
2023-05-23T06:01:21.105Z,22.57
2023-05-23T06:02:20.693Z,22.61
2023-05-23T06:03:21.147Z,22.66
2023-05-23T06:04:21.137Z,22.69
2023-05-23T06:05:21.054Z,22.72
2023-05-23T06:06:21.051Z,22.74
2023-05-23T06:07:21.094Z,22.77
2023-05-23T06:08:20.328Z,22.79
2023-05-23T06:09:20.397Z,22.83
2023-05-23T06:10:20.472Z,22.86
2023-05-23T06:11:20.254Z,22.89
2023-05-23T06:12:21.317Z,22.91
2023-05-23T06:13:21.299Z,22.93
2023-05-23T06:14:21.419Z,22.95
2023-05-23T06:15:21.552Z,22.98
2023-05-23T06:16:20.681Z,23.00
2023-05-23T06:17:21.853Z,23.01
2023-05-23T06:18:21.645Z,23.04
2023-05-23T06:19:21.663Z,23.06
2023-05-23T06:20:21.574Z,23.07
2023-05-23T06:21:20.532Z,23.09
2023-05-23T06:22:21.577Z,23.10
2023-05-23T06:23:21.549Z,23.13
2023-05-23T06:24:20.659Z,23.15
2023-05-23T06:25:21.648Z,23.18
2023-05-23T06:26:21.572Z,23.19
2023-05-23T06:27:27.502Z,23.21
2023-05-23T06:28:20.459Z,23.22
2023-05-23T06:29:21.449Z,23.23
2023-05-23T06:30:21.462Z,23.25
2023-05-23T06:31:21.469Z,23.27
2023-05-23T06:32:21.481Z,23.29
2023-05-23T06:33:21.433Z,23.30
2023-05-23T06:34:21.425Z,23.33
2023-05-23T06:35:20.409Z,23.34
2023-05-23T06:36:21.419Z,23.34
2023-05-23T06:37:21.473Z,23.36
2023-05-23T06:38:21.401Z,23.37
2023-05-23T06:39:20.380Z,23.38
2023-05-23T06:40:20.394Z,23.39
2023-05-23T06:41:20.513Z,23.40
2023-05-23T06:42:21.371Z,23.41
2023-05-23T06:43:21.369Z,23.42
2023-05-23T06:44:20.365Z,23.44
2023-05-23T06:45:21.359Z,23.44
2023-05-23T06:46:21.390Z,23.45
2023-05-23T06:47:21.370Z,23.47
2023-05-23T06:48:21.320Z,23.49
2023-05-23T06:49:21.312Z,23.48
2023-05-23T06:50:21.321Z,23.51
2023-05-23T06:51:21.368Z,23.54
2023-05-23T06:52:20.291Z,23.60
2023-05-23T06:53:21.562Z,23.65
2023-05-23T06:54:21.283Z,23.67
2023-05-23T06:55:21.369Z,23.67
2023-05-23T06:56:21.413Z,23.62
2023-05-23T06:57:20.584Z,23.61
2023-05-23T06:58:20.574Z,23.57
2023-05-23T06:59:21.578Z,23.53
2023-05-23T07:00:20.626Z,23.48
2023-05-23T07:01:21.670Z,23.44
2023-05-23T07:02:20.714Z,23.40
2023-05-23T07:03:21.666Z,23.36
2023-05-23T07:04:21.646Z,23.33
2023-05-23T07:05:21.700Z,23.30
2023-05-23T07:06:20.690Z,23.27
2023-05-23T07:07:20.649Z,23.25
2023-05-23T07:08:20.661Z,23.24
2023-05-23T07:09:21.671Z,23.22
2023-05-23T07:10:21.677Z,23.19
2023-05-23T07:11:20.697Z,23.18
2023-05-23T07:12:20.706Z,23.16
2023-05-23T07:13:21.823Z,23.14
2023-05-23T07:14:21.693Z,23.13
2023-05-23T07:15:20.714Z,23.12
2023-05-23T07:16:20.762Z,23.11
2023-05-23T07:17:20.835Z,23.10
2023-05-23T07:18:21.738Z,23.07
2023-05-23T07:19:20.784Z,23.07
2023-05-23T07:20:20.757Z,23.06
2023-05-23T07:21:21.763Z,23.04
2023-05-23T07:22:21.772Z,23.04
2023-05-23T07:23:21.829Z,23.03
2023-05-23T07:24:22.855Z,23.02
2023-05-23T07:25:20.819Z,23.00
2023-05-23T07:26:21.791Z,23.00
2023-05-23T07:27:21.790Z,22.98
2023-05-23T07:28:20.781Z,22.98
2023-05-23T07:29:21.919Z,22.97
2023-05-23T07:30:21.781Z,22.97
2023-05-23T07:31:21.892Z,22.97
2023-05-23T07:32:21.770Z,22.97
2023-05-23T07:33:21.786Z,22.96
2023-05-23T07:34:21.745Z,22.96
2023-05-23T07:35:21.755Z,22.94
2023-05-23T07:36:21.748Z,22.94
2023-05-23T07:37:21.748Z,22.94
2023-05-23T07:38:21.743Z,22.93
2023-05-23T07:39:20.727Z,22.93
2023-05-23T07:40:20.725Z,22.93
2023-05-23T07:41:20.733Z,22.91
2023-05-23T07:42:21.694Z,22.91
2023-05-23T07:43:21.697Z,22.91
2023-05-23T07:44:24.655Z,22.90
2023-05-23T07:45:21.691Z,22.89
2023-05-23T07:46:21.717Z,22.89
2023-05-23T07:47:21.747Z,22.88
2023-05-23T07:48:22.109Z,22.89
2023-05-23T07:49:21.671Z,22.91
2023-05-23T07:50:21.660Z,22.93
2023-05-23T07:51:21.660Z,22.93
2023-05-23T07:52:20.639Z,22.93
2023-05-23T07:53:22.098Z,22.94
2023-05-23T07:54:21.638Z,22.94
2023-05-23T07:55:21.609Z,22.93
2023-05-23T07:56:20.621Z,22.92
2023-05-23T07:57:20.609Z,22.91
2023-05-23T07:58:20.596Z,22.90
2023-05-23T07:59:20.582Z,22.89
2023-05-23T08:00:21.586Z,22.89
2023-05-23T08:01:20.600Z,22.87
2023-05-23T08:02:20.630Z,22.87
2023-05-23T08:03:21.630Z,22.87
2023-05-23T08:04:21.599Z,22.87
2023-05-23T08:05:21.537Z,22.87
2023-05-23T08:06:20.532Z,22.87
2023-05-23T08:07:21.539Z,22.86
2023-05-23T08:08:21.523Z,22.87
2023-05-23T08:09:21.532Z,22.85
2023-05-23T08:10:21.538Z,22.86
2023-05-23T08:11:20.524Z,22.86
2023-05-23T08:12:20.564Z,22.86
2023-05-23T08:13:21.577Z,22.86
2023-05-23T08:14:20.573Z,22.85
2023-05-23T08:15:21.592Z,22.85
2023-05-23T08:16:21.703Z,22.85
2023-05-23T08:17:20.840Z,22.85
2023-05-23T08:18:21.744Z,22.84
2023-05-23T08:19:21.784Z,22.85
2023-05-23T08:20:21.775Z,22.84
2023-05-23T08:21:20.800Z,22.85
2023-05-23T08:22:21.830Z,22.85
2023-05-23T08:23:20.867Z,22.85
2023-05-23T08:24:20.872Z,22.85
2023-05-23T08:25:21.896Z,22.84
2023-05-23T08:26:20.931Z,22.85
2023-05-23T08:27:20.936Z,22.84
2023-05-23T08:28:21.984Z,22.84
2023-05-23T08:29:22.031Z,22.84
2023-05-23T08:30:22.090Z,22.84
2023-05-23T08:31:22.104Z,22.84
2023-05-23T08:32:22.271Z,22.84
2023-05-23T08:33:21.260Z,22.84
2023-05-23T08:34:22.221Z,22.84
2023-05-23T08:35:21.250Z,22.84
2023-05-23T08:36:22.292Z,22.85
2023-05-23T08:37:22.330Z,22.84
2023-05-23T08:38:22.352Z,22.84
2023-05-23T08:39:22.385Z,22.84
2023-05-23T08:40:21.603Z,22.84
2023-05-23T08:41:22.469Z,22.84
2023-05-23T08:42:22.515Z,22.84
2023-05-23T08:43:22.627Z,22.85
2023-05-23T08:44:22.110Z,22.92
2023-05-23T08:45:21.607Z,22.98
2023-05-23T08:46:22.644Z,23.02
2023-05-23T08:47:21.643Z,23.08
2023-05-23T08:48:22.650Z,23.13
2023-05-23T08:49:22.699Z,23.21
2023-05-23T08:50:23.420Z,23.29
2023-05-23T08:51:22.629Z,23.34
2023-05-23T08:52:22.646Z,23.37
2023-05-23T08:53:22.719Z,23.41
2023-05-23T08:54:22.653Z,23.42
2023-05-23T08:55:22.684Z,23.46
2023-05-23T08:56:22.672Z,23.52
2023-05-23T08:57:21.702Z,23.52
2023-05-23T08:58:22.131Z,23.49
2023-05-23T08:59:22.730Z,23.45
2023-05-23T09:00:22.732Z,23.41
2023-05-23T09:01:22.772Z,23.37
2023-05-23T09:02:22.826Z,23.33
2023-05-23T09:03:21.719Z,23.31
2023-05-23T09:04:21.733Z,23.29
2023-05-23T09:05:21.808Z,23.25
2023-05-23T09:06:22.730Z,23.23
2023-05-23T09:07:22.752Z,23.21
2023-05-23T09:08:22.749Z,23.20
2023-05-23T09:09:21.740Z,23.17
2023-05-23T09:10:21.740Z,23.16
2023-05-23T09:11:22.727Z,23.14
2023-05-23T09:12:22.733Z,23.13
2023-05-23T09:13:22.760Z,23.12
2023-05-23T09:14:21.766Z,23.11
2023-05-23T09:15:22.746Z,23.10
2023-05-23T09:16:22.924Z,23.10
2023-05-23T09:17:21.812Z,23.09
2023-05-23T09:18:21.794Z,23.08
2023-05-23T09:19:22.846Z,23.08
2023-05-23T09:20:21.839Z,23.08
2023-05-23T09:21:22.841Z,23.07
2023-05-23T09:22:22.821Z,23.06
2023-05-23T09:23:22.839Z,23.06
2023-05-23T09:24:21.861Z,23.05
2023-05-23T09:25:22.866Z,23.04
2023-05-23T09:26:22.877Z,23.04
2023-05-23T09:27:22.887Z,23.03
2023-05-23T09:28:22.888Z,23.03
2023-05-23T09:29:22.902Z,23.05
2023-05-23T09:30:22.904Z,23.05
2023-05-23T09:31:22.976Z,23.05
2023-05-23T09:32:22.073Z,23.04
2023-05-23T09:33:22.975Z,23.04
2023-05-23T09:34:21.962Z,23.04
2023-05-23T09:35:21.973Z,23.05
2023-05-23T09:36:21.999Z,23.06
2023-05-23T09:37:23.025Z,23.06
2023-05-23T09:38:22.047Z,23.06
2023-05-23T09:39:23.036Z,23.07
2023-05-23T09:40:23.431Z,23.07
2023-05-23T09:41:22.041Z,23.07
2023-05-23T09:42:23.111Z,23.08
2023-05-23T09:43:22.091Z,23.09
2023-05-23T09:44:22.110Z,23.09
2023-05-23T09:45:22.125Z,23.11
2023-05-23T09:46:23.276Z,23.11
2023-05-23T09:47:22.292Z,23.13
2023-05-23T09:48:23.653Z,23.13
2023-05-23T09:49:23.178Z,23.17
2023-05-23T09:50:22.178Z,23.20
2023-05-23T09:51:23.211Z,23.26
2023-05-23T09:52:23.195Z,23.28
2023-05-23T09:53:23.209Z,23.29
2023-05-23T09:54:22.145Z,23.29
2023-05-23T09:55:23.167Z,23.27
2023-05-23T09:56:23.146Z,23.26
2023-05-23T09:57:23.148Z,23.25
2023-05-23T09:58:23.146Z,23.23
2023-05-23T09:59:23.149Z,23.24
2023-05-23T10:00:23.161Z,23.25
2023-05-23T10:01:23.208Z,23.24
2023-05-23T10:02:28.662Z,23.25
2023-05-23T10:03:22.124Z,23.24
2023-05-23T10:04:23.165Z,23.24
2023-05-23T10:05:23.121Z,23.25
2023-05-23T10:06:23.126Z,23.25
2023-05-23T10:07:23.173Z,23.26
2023-05-23T10:08:22.125Z,23.26
2023-05-23T10:09:23.136Z,23.26
2023-05-23T10:10:23.090Z,23.27
2023-05-23T10:11:23.090Z,23.27
2023-05-23T10:12:23.091Z,23.27
2023-05-23T10:13:22.085Z,23.27
2023-05-23T10:14:22.073Z,23.26
2023-05-23T10:15:23.086Z,23.26
2023-05-23T10:16:23.061Z,23.26
2023-05-23T10:17:23.083Z,23.27
2023-05-23T10:18:22.037Z,23.27
2023-05-23T10:19:22.080Z,23.27
2023-05-23T10:20:23.049Z,23.27
2023-05-23T10:21:23.035Z,23.27
2023-05-23T10:22:23.028Z,23.28
2023-05-23T10:23:22.022Z,23.28
2023-05-23T10:24:23.001Z,23.28
2023-05-23T10:25:22.020Z,23.29
2023-05-23T10:26:22.988Z,23.30
2023-05-23T10:27:22.981Z,23.30
2023-05-23T10:28:27.152Z,23.30
2023-05-23T10:29:22.957Z,23.31
2023-05-23T10:30:22.949Z,23.31
2023-05-23T10:31:22.998Z,23.31
2023-05-23T10:32:22.998Z,23.31
2023-05-23T10:33:21.987Z,23.31
2023-05-23T10:34:22.987Z,23.31
2023-05-23T10:35:23.019Z,23.33
2023-05-23T10:36:23.021Z,23.33
2023-05-23T10:37:23.033Z,23.34
2023-05-23T10:38:22.030Z,23.35
2023-05-23T10:39:22.016Z,23.35
2023-05-23T10:40:22.998Z,23.37
2023-05-23T10:41:23.036Z,23.37
2023-05-23T10:42:23.019Z,23.39
2023-05-23T10:43:23.166Z,23.40
2023-05-23T10:44:23.086Z,23.40
2023-05-23T10:45:22.159Z,23.42
2023-05-23T10:46:22.338Z,23.46
2023-05-23T10:47:22.301Z,23.49
2023-05-23T10:48:22.318Z,23.51
2023-05-23T10:49:22.349Z,23.51
2023-05-23T10:50:24.162Z,23.53
2023-05-23T10:51:22.473Z,23.54
2023-05-23T10:52:22.534Z,23.55
2023-05-23T10:53:22.587Z,23.56
2023-05-23T10:54:22.641Z,23.57
2023-05-23T10:55:23.687Z,23.59
2023-05-23T10:56:22.735Z,23.60
2023-05-23T10:57:23.870Z,23.60
2023-05-23T10:58:23.826Z,23.62
2023-05-23T10:59:23.895Z,23.63
2023-05-23T11:00:23.930Z,23.64
2023-05-23T11:01:24.226Z,23.64
2023-05-23T11:02:24.099Z,23.65
2023-05-23T11:03:23.110Z,23.66
2023-05-23T11:04:23.176Z,23.67
2023-05-23T11:05:23.292Z,23.68
2023-05-23T11:06:23.187Z,23.68
2023-05-23T11:07:23.219Z,23.69
2023-05-23T11:08:29.574Z,23.70
2023-05-23T11:09:24.277Z,23.70
2023-05-23T11:10:24.247Z,23.72
2023-05-23T11:11:24.242Z,23.72
2023-05-23T11:12:23.212Z,23.74
2023-05-23T11:13:23.260Z,23.77
2023-05-23T11:14:24.211Z,23.78
2023-05-23T11:15:24.194Z,23.80
2023-05-23T11:16:23.299Z,23.80
2023-05-23T11:17:24.283Z,23.81
2023-05-23T11:18:24.187Z,23.83
2023-05-23T11:19:24.222Z,23.84
2023-05-23T11:20:24.165Z,23.85
2023-05-23T11:21:23.158Z,23.86
2023-05-23T11:22:24.148Z,23.86
2023-05-23T11:23:24.227Z,23.88
2023-05-23T11:24:23.168Z,23.88
2023-05-23T11:25:23.139Z,23.89
2023-05-23T11:26:23.130Z,23.90
2023-05-23T11:27:24.114Z,23.91
2023-05-23T11:28:24.127Z,23.93
2023-05-23T11:29:23.133Z,23.94
2023-05-23T11:30:24.093Z,23.95
2023-05-23T11:31:24.121Z,23.97
2023-05-23T11:32:23.142Z,23.97
2023-05-23T11:33:23.102Z,23.97
2023-05-23T11:34:24.070Z,23.97
2023-05-23T11:35:24.079Z,23.97
2023-05-23T11:36:23.085Z,23.97
2023-05-23T11:37:25.935Z,23.98
2023-05-23T11:38:24.182Z,23.98
2023-05-23T11:39:24.109Z,23.99
2023-05-23T11:40:23.040Z,23.99
2023-05-23T11:41:23.036Z,23.99
2023-05-23T11:42:24.032Z,23.99
2023-05-23T11:43:23.031Z,24.00
2023-05-23T11:44:24.017Z,23.99
2023-05-23T11:45:23.033Z,24.00
2023-05-23T11:46:23.028Z,24.01
2023-05-23T11:47:24.080Z,24.02
2023-05-23T11:48:23.008Z,24.01
2023-05-23T11:49:23.992Z,24.02
2023-05-23T11:50:22.970Z,24.03
2023-05-23T11:51:22.984Z,24.04
2023-05-23T11:52:22.961Z,24.05
2023-05-23T11:53:23.986Z,24.05
2023-05-23T11:54:23.963Z,24.04
2023-05-23T11:55:22.962Z,24.05
2023-05-23T11:56:22.944Z,24.05
2023-05-23T11:57:23.924Z,24.05
2023-05-23T11:58:23.950Z,24.05
2023-05-23T11:59:23.922Z,24.05
2023-05-23T12:00:23.927Z,24.04
2023-05-23T12:01:23.031Z,24.04
2023-05-23T12:02:23.924Z,24.03
2023-05-23T12:03:24.104Z,24.04
2023-05-23T12:04:24.064Z,24.03
2023-05-23T12:05:22.870Z,24.03
2023-05-23T12:06:22.883Z,24.03
2023-05-23T12:07:23.902Z,24.03
2023-05-23T12:08:22.863Z,24.04
2023-05-23T12:09:23.848Z,24.03
2023-05-23T12:10:22.845Z,24.01
2023-05-23T12:11:23.859Z,24.00
2023-05-23T12:12:23.823Z,23.99
2023-05-23T12:13:23.827Z,23.98
2023-05-23T12:14:23.823Z,23.97
2023-05-23T12:15:22.822Z,23.96
2023-05-23T12:16:22.814Z,23.95
2023-05-23T12:17:23.819Z,23.94
2023-05-23T12:18:22.796Z,23.81
2023-05-23T12:19:22.941Z,23.59
2023-05-23T12:20:22.781Z,23.41
2023-05-23T12:21:23.777Z,23.44
2023-05-23T12:22:23.776Z,23.49
2023-05-23T12:23:22.798Z,23.54
2023-05-23T12:24:23.747Z,23.57
2023-05-23T12:25:23.770Z,23.61
2023-05-23T12:26:23.763Z,23.64
2023-05-23T12:27:23.758Z,23.66
2023-05-23T12:28:23.823Z,23.68
2023-05-23T12:29:23.883Z,23.71
2023-05-23T12:30:23.924Z,23.72
2023-05-23T12:31:23.056Z,23.73
2023-05-23T12:32:24.056Z,23.75
2023-05-23T12:33:24.099Z,23.77
2023-05-23T12:34:24.122Z,23.76
2023-05-23T12:35:24.158Z,23.77
2023-05-23T12:36:23.217Z,23.77
2023-05-23T12:37:24.253Z,23.78
2023-05-23T12:38:23.291Z,23.78
2023-05-23T12:39:23.340Z,23.78
2023-05-23T12:40:24.388Z,23.79
2023-05-23T12:41:24.410Z,23.78
2023-05-23T12:42:24.433Z,23.79
2023-05-23T12:43:23.489Z,23.79
2023-05-23T12:44:24.545Z,23.79
2023-05-23T12:45:24.554Z,23.79
2023-05-23T12:46:23.618Z,23.78
2023-05-23T12:47:24.670Z,23.78
2023-05-23T12:48:24.677Z,23.78
2023-05-23T12:49:24.720Z,23.78
2023-05-23T12:50:24.733Z,23.78
2023-05-23T12:51:23.773Z,23.78
2023-05-23T12:52:23.820Z,23.77